SEA weather

Seattle Tacoma International Airport
Seattle, Washington, United States

Public forecast

Using degrees Fahrenheit for public forecast. Weather courtesy of forecast.io.

Current aviation weather report (METAR) for Seattle Tacoma International Airport

Retrieved 2019/10/17 04:32 UTC (23 minutes ago):

KSEA 170432Z 20010KT 10SM -RA BKN008 BKN013 OVC029 13/11 A2969

Aviation forecast (TAF) for Seattle Tacoma International Airport

Retrieved 2019-10-17 00:22 UTC (5 hours ago):

TAF KSEA 162320Z 1700/1806 17010G18KT 5SM RA BR OVC030 FM170200 19008KT P6SM -SHRA BKN035 BKN050 FM171200 19008KT P6SM -SHRA BKN020 OVC040 FM171600 18010KT P6SM -RA BKN015 OVC030 TEMPO 1716/1719 3SM RA BR OVC015 FM172100 20010G18KT P6SM -SHRA OVC030 FM180300 19010KT P6SM -SHRA OVC025